Archival Weather

Heathrow

London, United Kingdom (EGLL)

Report from: Thursday, September 21, 2023 5:20 AM BST
Current time: Saturday, March 2, 2024 10:56 AM GMT

Current weather – Weather history – Daily summaries
Weather forecast

Temperature12.0°C (53.6°F)
Dew point11.0°C (51.8°F)
Winds 5 kts (2.6 m/s, 5.8 mph) Vrb
Winds variableWinds variable from Southeast (130°) to West-Southwest (250°)
Visibility6.2 mi. (10 km)
Clouds Sky clear
Altimeter29.38 in.Hg (995 mB)
Relative humidity94 %
Density altitude451 ft. (137 m)
Remarks Fully automated report
No clouds detected
No significant changes expected in the next two hours
Flight conditions Visual Meteorological Conditions
Raw dataEGLL 210420Z AUTO 19005KT 130V250 9999 NCD 12/11 Q0995 NOSIG
An error has occurred. This application may no longer respond until reloaded. Reload 🗙